Time;durP1;ratioP1;P1;durP2;ratioP2;P2;SDS_P1;SDS_P2;PMS_P1;PMS_P2;Temp;Humidity;BMP_temperature;BMP_pressure;BME280_temperature;BME280_humidity;BME280_pressure;Samples;Min_cycle;Max_cycle;Signal;HPM_P1;HPM_P2
2022/04/21 00:00:08;;;;;;;10.32;7.50;;;;;;;8.79;70.09;99872.09;4881978;28;96929;-89
2022/04/21 00:02:34;;;;;;;10.13;7.35;;;;;;;8.79;69.84;99879.94;4884082;28;96842;-88
2022/04/21 00:05:00;;;;;;;12.50;8.65;;;;;;;8.71;70.02;99874.97;4882263;28;98424;-88
2022/04/21 00:07:25;;;;;;;12.15;8.55;;;;;;;8.80;70.05;99877.25;4883042;28;101178;-89
2022/04/21 00:09:51;;;;;;;11.65;8.70;;;;;;;8.67;69.98;99862.00;4882542;28;96578;-89
2022/04/21 00:12:17;;;;;;;12.45;10.00;;;;;;;8.44;70.23;99831.41;4883409;28;96678;-89
2022/04/21 00:14:43;;;;;;;13.82;9.93;;;;;;;8.45;69.87;99833.09;4882934;28;96772;-88
2022/04/21 00:17:08;;;;;;;14.32;9.15;;;;;;;8.66;70.42;99869.00;4883331;28;101272;-89
2022/04/21 00:19:35;;;;;;;11.38;8.93;;;;;;;8.63;70.43;99866.50;4886430;28;97079;-88
2022/04/21 00:24:44;;;;;;;12.82;9.40;;;;;;;8.78;70.17;99868.59;4888908;28;101107;-88
2022/04/21 00:27:10;;;;;;;12.85;9.10;;;;;;;8.78;69.60;99862.50;4888189;28;100120;-88
2022/04/21 00:29:36;;;;;;;16.58;10.45;;;;;;;8.54;69.48;99820.56;4904240;28;96760;-88
2022/04/21 00:32:02;;;;;;;15.10;10.40;;;;;;;8.82;69.96;99867.59;4909472;28;96315;-88
2022/04/21 00:34:27;;;;;;;14.65;10.13;;;;;;;8.76;69.70;99859.13;4895321;28;99809;-88
2022/04/21 00:36:53;;;;;;;13.70;11.00;;;;;;;8.59;69.39;99834.34;4872655;28;100923;-88
2022/04/21 00:39:18;;;;;;;15.27;12.00;;;;;;;8.74;69.95;99867.00;4888486;28;96588;-88
2022/04/21 00:41:44;;;;;;;15.43;10.27;;;;;;;8.60;69.94;99838.66;4886040;28;96895;-88
2022/04/21 00:44:10;;;;;;;16.85;11.43;;;;;;;8.80;69.97;99860.72;4885058;28;101286;-88
2022/04/21 00:46:37;;;;;;;16.48;11.55;;;;;;;8.64;69.61;99835.94;4886044;28;101711;-89
2022/04/21 00:49:04;;;;;;;16.58;12.52;;;;;;;8.78;69.65;99859.91;4882597;28;96908;-88
2022/04/21 00:51:31;;;;;;;15.48;10.80;;;;;;;8.70;69.51;99848.84;4867244;28;96918;-88
2022/04/21 00:53:57;;;;;;;18.33;10.68;;;;;;;8.73;69.39;99844.38;4882662;28;98598;-88
2022/04/21 00:56:23;;;;;;;17.65;10.55;;;;;;;8.55;69.33;99817.06;4866395;28;101181;-88
2022/04/21 00:58:48;;;;;;;16.02;11.13;;;;;;;8.78;69.75;99845.03;4866327;28;96943;-88
2022/04/21 01:03:58;;;;;;;15.88;10.75;;;;;;;8.77;69.17;99839.88;4881799;28;99753;-88
2022/04/21 01:06:24;;;;;;;14.18;10.98;;;;;;;8.76;69.76;99838.19;4870837;28;100076;-89
2022/04/21 01:08:50;;;;;;;15.30;10.68;;;;;;;8.86;69.22;99854.41;4866701;28;96950;-89
2022/04/21 01:11:16;;;;;;;12.95;10.00;;;;;;;8.81;69.26;99834.50;4882166;28;96712;-88
2022/04/21 01:13:46;;;;;;;14.50;10.15;;;;;;;8.89;69.25;99849.91;4850626;28;99996;-88
2022/04/21 01:16:11;;;;;;;13.07;10.10;;;;;;;8.89;69.24;99843.84;4866215;28;100997;-88
2022/04/21 01:18:37;;;;;;;15.15;9.48;;;;;;;8.81;68.55;99836.22;4851070;28;96676;-88
2022/04/21 01:21:02;;;;;;;12.18;10.35;;;;;;;8.94;68.60;99847.16;4898136;28;96777;-88
2022/04/21 01:23:28;;;;;;;14.70;9.18;;;;;;;8.74;68.91;99821.66;4867795;28;101196;-88
2022/04/21 01:25:54;;;;;;;14.63;9.80;;;;;;;8.71;68.92;99824.38;4884696;28;101368;-88
2022/04/21 01:28:20;;;;;;;14.45;10.15;;;;;;;8.68;69.27;99833.19;4884111;28;96690;-88
2022/04/21 01:30:46;;;;;;;13.93;9.90;;;;;;;8.66;69.73;99832.38;4869200;28;97020;-88
2022/04/21 01:33:11;;;;;;;17.92;10.40;;;;;;;8.70;69.66;99835.78;4884427;28;98420;-88
2022/04/21 01:35:37;;;;;;;15.80;10.82;;;;;;;8.74;69.62;99846.06;4868951;28;99945;-86
2022/04/21 01:43:32;;;;;;;14.43;9.88;;;;;;;8.78;69.08;99834.56;4886710;28;101045;-88
2022/04/21 01:45:57;;;;;;;13.15;9.57;;;;;;;8.84;69.13;99842.25;4868640;28;101236;-88
2022/04/21 01:48:24;;;;;;;14.80;10.30;;;;;;;8.81;69.41;99828.38;4883874;28;96653;-88
2022/04/21 01:50:49;;;;;;;15.73;10.80;;;;;;;8.85;69.66;99840.47;4869141;28;96825;-88
2022/04/21 01:53:15;;;;;;;16.25;11.30;;;;;;;8.87;69.58;99836.00;4868554;28;101789;-86
2022/04/21 01:55:40;;;;;;;17.55;10.82;;;;;;;8.73;69.28;99807.72;4867869;28;101170;-88
2022/04/21 01:58:06;;;;;;;15.82;10.55;;;;;;;8.74;68.98;99809.44;4884344;28;96647;-88
2022/04/21 02:00:32;;;;;;;15.60;11.10;;;;;;;8.89;69.00;99830.75;4884887;28;96619;-89
2022/04/21 02:02:57;;;;;;;16.13;10.88;;;;;;;8.91;69.08;99829.78;4868498;28;101381;-89
2022/04/21 02:05:23;;;;;;;18.73;10.98;;;;;;;8.95;69.25;99830.53;4865339;28;101809;-89
2022/04/21 02:07:48;;;;;;;15.38;10.65;;;;;;;8.89;69.25;99820.28;4865582;28;97242;-88
2022/04/21 02:10:16;;;;;;;14.65;10.20;;;;;;;8.88;69.70;99822.03;4881060;28;97201;-88
2022/04/21 02:12:42;;;;;;;15.82;11.27;;;;;;;8.96;68.92;99827.88;4880615;28;98185;-88
2022/04/21 02:15:08;;;;;;;16.48;11.40;;;;;;;8.97;69.39;99832.19;4880077;28;99882;-88
2022/04/21 02:17:35;;;;;;;17.15;11.65;;;;;;;8.72;68.96;99778.97;4865662;28;96678;-89
2022/04/21 02:20:05;;;;;;;16.85;11.02;;;;;;;8.92;68.87;99822.78;4881001;28;96803;-88
2022/04/21 02:22:31;;;;;;;14.80;10.88;;;;;;;8.97;68.99;99837.41;4881409;28;101173;-88
2022/04/21 02:24:56;;;;;;;15.15;11.57;;;;;;;8.98;68.96;99831.25;4880843;28;98341;-88
2022/04/21 02:27:22;;;;;;;13.98;11.10;;;;;;;9.01;68.97;99836.38;4896745;28;96675;-88
2022/04/21 02:29:48;;;;;;;17.42;11.25;;;;;;;8.95;68.99;99834.00;4899446;28;96881;-88
2022/04/21 02:32:13;;;;;;;21.83;12.07;;;;;;;8.98;68.54;99836.50;4883524;28;100785;-88
2022/04/21 02:34:41;;;;;;;15.98;11.10;;;;;;;8.90;68.60;99819.34;4883971;28;101484;-89
2022/04/21 02:37:07;;;;;;;17.92;12.40;;;;;;;9.00;68.85;99839.09;4899589;28;97062;-88
2022/04/21 02:39:33;;;;;;;22.30;14.57;;;;;;;8.67;68.79;99800.09;4884510;28;96753;-88
2022/04/21 02:41:59;;;;;;;26.95;18.48;;;;;;;8.74;68.84;99795.50;4883714;28;101405;-88
2022/04/21 02:44:24;;;;;;;23.75;17.83;;;;;;;9.02;68.31;99843.34;4867859;28;99958;-88
2022/04/21 02:46:50;;;;;;;18.50;14.13;;;;;;;9.03;68.00;99833.72;4864224;28;97235;-88
2022/04/21 02:49:16;;;;;;;19.20;12.93;;;;;;;9.02;68.07;99835.50;4865007;28;96976;-88
2022/04/21 02:51:41;;;;;;;19.98;13.13;;;;;;;9.02;68.13;99829.41;4880701;28;97997;-88
2022/04/21 02:59:35;;;;;;;15.57;12.35;;;;;;;9.04;67.76;99838.91;4883362;28;96541;-88
2022/04/21 03:02:00;;;;;;;18.90;12.90;;;;;;;9.03;67.65;99837.19;4858040;28;100165;-88
2022/04/21 03:04:26;;;;;;;15.93;12.10;;;;;;;8.98;67.63;99828.66;4863460;28;100467;-87
2022/04/21 03:06:52;;;;;;;18.90;12.98;;;;;;;9.04;67.78;99844.13;4865084;28;96815;-89
2022/04/21 03:09:17;;;;;;;20.20;12.48;;;;;;;8.98;67.50;99833.88;4880317;28;97002;-89
2022/04/21 03:11:43;;;;;;;19.45;12.63;;;;;;;8.81;67.48;99799.59;4848858;28;99520;-89
2022/04/21 03:14:08;;;;;;;17.77;12.52;;;;;;;8.99;67.63;99840.84;4863818;28;97324;-88
2022/04/21 03:16:34;;;;;;;20.73;13.77;;;;;;;8.99;68.20;99826.91;4863484;28;97116;-88
2022/04/21 03:18:59;;;;;;;21.75;13.43;;;;;;;8.99;67.31;99824.28;4848832;28;96870;-88
2022/04/21 03:24:19;;;;;;;23.00;13.90;;;;;;;8.99;67.43;99826.91;4848148;28;100048;-88
2022/04/21 03:26:53;;;;;;;22.75;14.50;;;;;;;9.00;67.69;99828.59;4848957;28;96704;-88
2022/04/21 03:29:19;;;;;;;23.17;13.75;;;;;;;9.04;67.44;99835.44;4851337;28;97112;-88
2022/04/21 03:31:45;;;;;;;23.58;14.10;;;;;;;9.10;67.80;99834.38;4865610;28;100397;-88
2022/04/21 03:34:14;;;;;;;21.75;13.75;;;;;;;9.08;67.52;99842.28;4899162;28;98215;-88
2022/04/21 03:36:44;;;;;;;19.95;14.27;;;;;;;9.05;67.75;99845.03;4864243;28;96819;-88
2022/04/21 03:39:10;;;;;;;28.05;14.10;;;;;;;9.02;68.08;99835.50;4864749;28;96794;-88
2022/04/21 03:41:35;;;;;;;24.42;14.32;;;;;;;9.04;68.18;99849.38;4864242;28;100907;-88
2022/04/21 03:44:01;;;;;;;23.85;14.73;;;;;;;8.96;68.00;99833.09;4864482;28;97782;-88
2022/04/21 03:46:26;;;;;;;21.90;14.25;;;;;;;9.00;67.99;99831.22;4864077;28;96669;-88
2022/04/21 03:48:52;;;;;;;24.70;14.60;;;;;;;9.02;67.81;99835.50;4864529;28;96874;-88
2022/04/21 03:51:18;;;;;;;25.50;15.32;;;;;;;8.69;67.78;99777.31;4875935;28;98527;-88
2022/04/21 03:53:43;;;;;;;28.65;16.70;;;;;;;9.20;67.91;99843.63;4870492;28;99778;-88
2022/04/21 03:56:09;;;;;;;30.90;16.83;;;;;;;9.17;67.87;99839.34;4886610;28;96656;-88
2022/04/21 03:58:34;;;;;;;27.92;15.35;;;;;;;8.86;67.93;99799.44;4875179;28;96909;-89
2022/04/21 04:01:00;;;;;;;24.65;15.48;;;;;;;8.89;68.19;99804.56;4884988;28;101375;-88
2022/04/21 04:03:25;;;;;;;30.05;16.13;;;;;;;8.96;68.16;99817.41;4869830;28;100626;-89
2022/04/21 04:05:51;;;;;;;31.05;16.92;;;;;;;9.15;68.27;99843.75;4870585;28;96764;-89
2022/04/21 04:11:01;;;;;;;33.08;16.92;;;;;;;9.08;68.66;99839.66;4903811;28;98708;-89
2022/04/21 04:13:26;;;;;;;32.03;17.58;;;;;;;9.09;68.01;99838.75;4920518;28;96676;-87
2022/04/21 04:15:54;;;;;;;36.08;17.73;;;;;;;9.06;68.66;99828.38;4881587;28;96666;-89
2022/04/21 04:18:21;;;;;;;36.08;19.05;;;;;;;8.95;68.05;99814.81;4868502;28;96982;-89
2022/04/21 04:20:47;;;;;;;36.47;18.13;;;;;;;9.00;68.26;99820.75;4868113;28;101660;-89
2022/04/21 04:23:20;;;;;;;30.77;18.50;;;;;;;8.91;68.60;99802.75;4867532;28;99670;-89
2022/04/21 04:25:46;;;;;;;29.17;16.77;;;;;;;9.08;68.43;99831.81;4885802;28;97338;-89
2022/04/21 04:28:12;;;;;;;31.98;17.40;;;;;;;8.99;68.89;99819.91;4880216;28;96998;-89
2022/04/21 04:30:38;;;;;;;31.95;17.25;;;;;;;9.11;68.87;99842.19;4906883;28;100189;-89
2022/04/21 04:33:07;;;;;;;38.60;19.02;;;;;;;9.12;69.16;99840.41;4906075;28;97276;-89
2022/04/21 04:35:33;;;;;;;36.33;17.90;;;;;;;9.08;68.70;99829.19;4867847;28;96706;-89
2022/04/21 04:37:59;;;;;;;42.30;19.45;;;;;;;8.99;69.35;99821.69;4865826;28;97213;-89
2022/04/21 04:40:25;;;;;;;41.28;19.70;;;;;;;9.14;69.13;99852.53;4877219;28;100245;-89
2022/04/21 04:42:55;;;;;;;39.22;19.88;;;;;;;9.14;69.40;99841.22;4848182;28;100155;-88
2022/04/21 04:48:05;;;;;;;42.78;22.00;;;;;;;9.06;69.39;99839.72;4851494;28;98198;-89
2022/04/21 04:50:31;;;;;;;43.35;21.55;;;;;;;9.07;69.55;99843.19;4876673;28;101033;-88
2022/04/21 04:53:00;;;;;;;49.20;21.75;;;;;;;8.94;69.97;99828.81;4879146;28;97806;-88
2022/04/21 04:55:26;;;;;;;47.53;22.42;;;;;;;9.08;70.00;99855.38;4862066;28;97116;-88
2022/04/21 04:57:52;;;;;;;47.97;21.33;;;;;;;8.99;69.87;99835.63;4863213;28;96733;-89
2022/04/21 05:00:18;;;;;;;47.88;21.95;;;;;;;9.16;69.58;99852.47;4893541;28;98473;-89
2022/04/21 05:02:47;;;;;;;45.83;21.15;;;;;;;9.22;69.68;99855.75;4877033;28;100278;-87
2022/04/21 05:05:12;;;;;;;52.55;23.75;;;;;;;9.10;69.94;99843.06;4877350;28;97157;-89
2022/04/21 05:07:41;;;;;;;50.00;23.15;;;;;;;9.06;70.17;99852.81;4893062;28;97215;-89
2022/04/21 05:10:08;;;;;;;49.00;23.75;;;;;;;8.88;70.54;99819.44;4865078;28;101344;-89
2022/04/21 05:12:34;;;;;;;43.45;21.02;;;;;;;9.02;70.26;99837.28;4861864;28;101177;-85
2022/04/21 05:14:59;;;;;;;42.28;21.83;;;;;;;9.20;70.37;99852.31;4860267;28;96967;-85
2022/04/21 05:17:26;;;;;;;43.47;20.92;;;;;;;9.25;69.94;99860.00;4861646;28;97369;-85
2022/04/21 05:19:55;;;;;;;45.70;20.40;;;;;;;9.23;70.18;99854.81;4857382;29;102019;-84
2022/04/21 05:22:28;;;;;;;42.17;20.00;;;;;;;9.22;70.30;99847.91;4858401;28;100596;-85
2022/04/21 05:24:57;;;;;;;45.55;21.42;;;;;;;9.21;70.08;99853.16;4861753;28;96803;-84
2022/04/21 05:27:23;;;;;;;41.25;20.58;;;;;;;9.20;70.25;99847.09;4875764;28;97020;-85
2022/04/21 05:32:36;;;;;;;39.75;18.15;;;;;;;9.32;69.65;99852.78;4844441;29;101955;-85
2022/04/21 05:35:03;;;;;;;38.08;17.83;;;;;;;9.30;70.09;99847.59;4884753;28;97172;-84
2022/04/21 05:37:28;;;;;;;38.88;18.73;;;;;;;9.10;70.39;99832.59;4877555;28;97021;-84
2022/04/21 05:39:54;;;;;;;34.65;19.00;;;;;;;9.33;69.78;99857.97;4857041;28;101438;-86
2022/04/21 05:42:25;;;;;;;34.10;18.60;;;;;;;9.33;70.21;99854.50;4880625;28;100839;-84
2022/04/21 05:44:54;;;;;;;41.28;18.23;;;;;;;9.19;69.98;99827.06;4898093;28;96814;-84
2022/04/21 05:47:20;;;;;;;39.13;17.27;;;;;;;9.28;70.18;99852.91;4898839;28;96802;-82
2022/04/21 05:49:46;;;;;;;36.30;19.25;;;;;;;9.27;70.23;99851.19;4865052;28;101480;-86
2022/04/21 05:52:13;;;;;;;34.85;18.35;;;;;;;9.10;70.58;99829.13;4876915;28;101061;-86
2022/04/21 05:54:39;;;;;;;34.42;19.25;;;;;;;9.32;69.76;99851.03;4885857;28;96768;-86
2022/04/21 05:57:05;;;;;;;40.60;19.23;;;;;;;9.24;70.05;99837.34;4880191;28;96852;-85
2022/04/21 05:59:32;;;;;;;42.75;21.35;;;;;;;9.39;70.08;99843.78;4878193;28;101736;-84
2022/04/21 06:01:59;;;;;;;39.03;19.45;;;;;;;9.41;69.83;99855.06;4880167;28;101220;-84
2022/04/21 06:04:24;;;;;;;33.47;17.23;;;;;;;9.34;68.90;99832.63;4862738;28;97427;-84
2022/04/21 06:06:50;;;;;;;33.45;15.98;;;;;;;9.40;69.38;99832.41;4877968;28;96967;-84
2022/04/21 06:09:16;;;;;;;34.35;18.40;;;;;;;9.36;68.79;99846.53;4880500;28;101530;-84
2022/04/21 06:11:43;;;;;;;31.83;17.58;;;;;;;9.17;69.31;99852.44;4880659;28;97980;-85
2022/04/21 06:14:09;;;;;;;36.42;17.48;;;;;;;9.18;69.43;99853.28;4883488;28;97637;-85
2022/04/21 06:16:35;;;;;;;46.35;20.92;;;;;;;9.23;69.72;99851.34;4893735;28;97156;-84
2022/04/21 06:19:00;;;;;;;51.63;24.88;;;;;;;9.26;69.53;99864.34;4887444;28;100113;-85
2022/04/21 06:21:26;;;;;;;50.58;26.55;;;;;;;9.02;70.17;99832.03;4866517;28;101558;-85
2022/04/21 06:23:51;;;;;;;53.65;24.52;;;;;;;9.14;69.97;99855.16;4865307;28;96776;-84
2022/04/21 06:26:17;;;;;;;56.83;25.88;;;;;;;9.09;70.34;99853.63;4872772;28;96721;-85
2022/04/21 06:28:43;;;;;;;53.92;25.55;;;;;;;9.10;70.17;99856.16;4877841;28;98148;-85
2022/04/21 06:31:09;;;;;;;55.03;26.77;;;;;;;9.19;70.47;99879.44;4880957;28;98665;-85
2022/04/21 06:33:35;;;;;;;51.20;26.17;;;;;;;9.33;70.12;99875.44;4861812;28;97035;-85
2022/04/21 06:36:02;;;;;;;46.53;24.05;;;;;;;9.39;70.06;99886.56;4888697;28;96755;-85
2022/04/21 06:38:27;;;;;;;49.92;25.00;;;;;;;9.37;70.13;99883.16;4893652;28;98020;-85
2022/04/21 06:40:53;;;;;;;46.97;23.83;;;;;;;9.39;69.72;99890.94;4849084;28;101272;-85
2022/04/21 06:48:47;;;;;;;43.47;22.35;;;;;;;9.18;69.41;99854.13;4913902;28;98488;-85
2022/04/21 06:51:15;;;;;;;44.50;22.35;;;;;;;9.33;69.99;99878.91;4896486;28;97915;-84
2022/04/21 06:53:42;;;;;;;41.58;21.75;;;;;;;9.39;69.72;99880.47;4865418;28;96664;-80
2022/04/21 06:56:08;;;;;;;44.42;22.58;;;;;;;9.30;69.84;99900.84;4881233;28;96806;-84
2022/04/21 06:58:34;;;;;;;48.72;22.67;;;;;;;9.30;69.78;99897.34;4896592;28;102169;-82
2022/04/21 07:01:01;;;;;;;48.78;24.38;;;;;;;9.30;69.73;99902.59;4888858;28;97795;-87
2022/04/21 07:03:27;;;;;;;42.25;23.88;;;;;;;9.18;70.35;99901.25;4893985;28;96766;-87
2022/04/21 07:05:55;;;;;;;40.22;22.35;;;;;;;9.14;70.48;99897.06;4862696;28;96817;-86
2022/04/21 07:08:24;;;;;;;42.85;22.83;;;;;;;9.15;70.17;99901.38;4897157;28;97544;-86
2022/04/21 07:10:50;;;;;;;44.20;22.42;;;;;;;9.00;70.78;99873.13;4870135;28;102066;-86
2022/04/21 07:13:15;;;;;;;43.85;22.10;;;;;;;9.16;70.12;99902.22;4878882;28;96666;-87
2022/04/21 07:15:41;;;;;;;43.55;21.15;;;;;;;9.13;70.31;99903.19;4876866;28;97367;-86
2022/04/21 07:18:08;;;;;;;34.97;20.92;;;;;;;9.24;69.92;99908.91;4891900;28;100823;-86
2022/04/21 07:20:34;;;;;;;39.30;20.05;;;;;;;9.16;69.86;99895.25;4889226;28;101244;-87
2022/04/21 07:23:00;;;;;;;35.00;19.80;;;;;;;9.03;70.16;99888.72;4860800;28;96767;-87
2022/04/21 07:25:26;;;;;;;41.30;20.08;;;;;;;9.15;70.18;99918.84;4887179;28;96895;-86
2022/04/21 07:27:53;;;;;;;32.13;17.85;;;;;;;9.07;69.75;99892.94;4894329;28;97162;-86
2022/04/21 07:30:19;;;;;;;32.97;19.80;;;;;;;9.24;69.80;99921.16;4890006;28;101294;-87
2022/04/21 07:32:44;;;;;;;41.10;20.38;;;;;;;9.25;69.72;99915.00;4873890;28;96861;-87
2022/04/21 07:35:10;;;;;;;41.65;21.70;;;;;;;9.13;70.07;99900.56;4858176;28;97669;-86
2022/04/21 07:37:37;;;;;;;42.63;22.38;;;;;;;9.28;69.91;99928.00;4857074;28;101338;-86
2022/04/21 07:40:06;;;;;;;40.42;23.15;;;;;;;9.36;69.89;99930.34;4864102;28;100350;-88
2022/04/21 07:42:32;;;;;;;46.83;22.63;;;;;;;9.39;69.39;99925.84;4873328;28;97643;-87
2022/04/21 07:44:59;;;;;;;41.15;23.05;;;;;;;9.28;69.46;99909.69;4858368;28;97449;-87
2022/04/21 07:47:24;;;;;;;41.85;22.90;;;;;;;9.03;69.61;99876.47;4887664;28;97437;-87
2022/04/21 07:49:50;;;;;;;39.75;20.48;;;;;;;9.26;69.85;99922.81;4891944;28;101568;-88
2022/04/21 07:55:08;;;;;;;38.75;21.25;;;;;;;9.25;70.10;99922.84;4889800;28;96933;-90
2022/04/21 07:57:34;;;;;;;37.65;21.67;;;;;;;9.19;70.49;99925.69;4897717;28;99032;-89
2022/04/21 08:00:00;;;;;;;41.15;21.20;;;;;;;9.13;70.66;99928.53;4900287;28;101403;-87
2022/04/21 08:02:26;;;;;;;37.28;20.42;;;;;;;9.13;70.16;99918.91;4881047;28;97745;-86
2022/04/21 08:04:52;;;;;;;38.90;21.48;;;;;;;9.12;70.05;99918.97;4891451;28;101267;-85
2022/04/21 08:07:17;;;;;;;37.75;20.00;;;;;;;9.26;70.10;99924.59;4883650;28;100276;-86
2022/04/21 08:09:43;;;;;;;46.22;21.48;;;;;;;9.20;69.92;99922.19;4910922;28;101293;-86
2022/04/21 08:12:09;;;;;;;38.40;20.45;;;;;;;9.12;69.98;99919.81;4898727;28;97383;-87
2022/04/21 08:14:35;;;;;;;36.95;20.70;;;;;;;9.28;69.81;99928.00;4894928;28;96832;-86
2022/04/21 08:17:02;;;;;;;40.17;19.55;;;;;;;9.34;70.04;99926.91;4898346;28;98365;-82
2022/04/21 08:19:28;;;;;;;38.83;19.70;;;;;;;9.33;69.59;99933.06;4863050;28;101404;-83
2022/04/21 08:21:53;;;;;;;35.50;19.55;;;;;;;9.28;69.53;99938.50;4894494;28;97004;-84
2022/04/21 08:32:41;;;;;;;29.70;18.20;;;;;;;9.55;68.86;99941.03;4890099;28;97263;-83
2022/04/21 08:35:09;;;;;;;30.77;16.88;;;;;;;9.59;68.18;99938.25;4894634;28;97443;-81
2022/04/21 08:37:36;;;;;;;30.33;17.08;;;;;;;9.63;68.49;99932.00;4895965;28;97251;-84
2022/04/21 08:40:06;;;;;;;36.40;18.40;;;;;;;9.73;68.47;99943.84;4896922;28;101598;-84
2022/04/21 08:42:39;;;;;;;33.22;18.20;;;;;;;9.88;68.04;99939.78;4881749;28;100318;-84
2022/04/21 08:45:09;;;;;;;34.97;19.20;;;;;;;9.80;67.60;99943.59;4865867;28;96776;-82
2022/04/21 08:47:36;;;;;;;30.50;18.58;;;;;;;9.80;68.34;99939.22;4884551;28;101742;-79
2022/04/21 08:50:05;;;;;;;28.27;17.67;;;;;;;9.83;67.64;99946.13;4877261;28;101469;-79
2022/04/21 08:52:31;;;;;;;29.17;16.45;;;;;;;9.78;67.69;99942.84;4881605;28;96816;-79
2022/04/21 08:54:57;;;;;;;28.77;17.17;;;;;;;9.81;67.71;99940.09;4862328;28;97327;-80
2022/04/21 08:57:22;;;;;;;30.25;18.00;;;;;;;9.78;67.72;99945.47;4889346;28;101078;-80
2022/04/21 08:59:48;;;;;;;34.03;18.05;;;;;;;9.64;67.95;99931.06;4883694;28;98370;-78
2022/04/21 09:02:14;;;;;;;32.10;16.95;;;;;;;9.83;67.63;99949.63;4882169;28;97119;-81
2022/04/21 09:04:41;;;;;;;28.75;16.52;;;;;;;9.90;67.39;99952.88;4866764;28;98160;-89
2022/04/21 09:07:20;;;;;;;23.85;16.42;;;;;;;9.99;67.23;99947.28;4870746;28;101499;-88
2022/04/21 09:10:13;;;;;;;23.95;15.32;;;;;;;9.99;67.01;99942.03;4885687;28;100163;-87
2022/04/21 09:12:45;;;;;;;23.85;14.20;;;;;;;10.09;66.43;99947.75;4879076;28;98018;-86
2022/04/21 09:15:20;;;;;;;25.95;14.93;;;;;;;9.96;66.55;99918.53;4883886;28;97110;-85
2022/04/21 09:17:48;;;;;;;29.05;16.35;;;;;;;10.15;66.45;99950.16;4881567;28;98631;-86
2022/04/21 09:20:17;;;;;;;28.48;14.82;;;;;;;10.20;66.08;99956.94;4897157;28;98088;-85
2022/04/21 09:22:54;;;;;;;29.48;16.20;;;;;;;10.18;66.08;99947.41;4884672;28;97276;-86
2022/04/21 09:25:31;;;;;;;25.95;14.25;;;;;;;10.27;66.29;99949.75;4878672;28;97266;-87
2022/04/21 09:27:59;;;;;;;24.35;14.68;;;;;;;10.38;65.71;99960.69;4874812;28;100406;-88
2022/04/21 09:30:25;;;;;;;23.55;15.35;;;;;;;10.02;65.59;99902.56;4871078;28;100176;-91
2022/04/21 09:32:55;;;;;;;24.38;14.73;;;;;;;10.03;65.37;99895.56;4887328;28;96871;-90
2022/04/21 09:35:27;;;;;;;24.17;15.02;;;;;;;9.86;64.88;99873.47;4883637;28;96848;-91
2022/04/21 09:37:57;;;;;;;;;;;;;;;10.33;65.09;99957.38;4867825;28;100028;-90
2022/04/21 09:40:27;;;;;;;23.55;14.60;;;;;;;10.37;64.97;99958.09;4873451;28;97989;-90
2022/04/21 09:43:00;;;;;;;25.92;13.55;;;;;;;10.24;65.56;99936.72;4870898;28;97143;-90
2022/04/21 09:48:23;;;;;;;22.50;13.52;;;;;;;10.50;65.21;99956.72;4903693;28;102083;-90
2022/04/21 09:50:52;;;;;;;24.80;14.48;;;;;;;10.38;65.55;99930.94;4900252;28;101483;-92
2022/04/21 09:53:23;;;;;;;28.73;16.50;;;;;;;10.55;65.33;99960.00;4885176;28;96951;-92
2022/04/21 09:56:07;;;;;;;25.35;14.93;;;;;;;10.39;65.24;99919.53;4889907;28;96906;-90
2022/04/21 09:58:42;;;;;;;25.25;15.52;;;;;;;10.38;65.25;99909.94;4870889;28;100773;-90
2022/04/21 10:01:13;;;;;;;23.08;15.27;;;;;;;10.52;64.98;99936.50;4887953;28;101680;-92
2022/04/21 10:03:43;;;;;;;25.80;14.93;;;;;;;10.16;65.07;99865.31;4884821;28;96644;-91
2022/04/21 10:06:14;;;;;;;25.42;15.38;;;;;;;10.70;64.94;99968.16;4917989;28;96816;-92
2022/04/21 10:08:44;;;;;;;25.33;15.00;;;;;;;10.24;65.03;99871.13;4901557;28;99972;-93
2022/04/21 10:11:27;;;;;;;29.30;15.40;;;;;;;10.60;65.08;99933.56;4887708;28;100553;-91
2022/04/21 10:13:57;;;;;;;27.23;15.80;;;;;;;10.54;65.01;99904.97;4886076;28;96941;-92
2022/04/21 10:16:24;;;;;;;31.90;16.48;;;;;;;10.67;64.86;99924.53;4880805;28;96933;-87
2022/04/21 10:18:52;;;;;;;26.33;16.85;;;;;;;10.83;64.96;99957.13;4857977;28;101739;-85
2022/04/21 10:21:34;;;;;;;29.30;16.10;;;;;;;10.82;64.44;99958.06;4862708;28;101106;-86
2022/04/21 10:24:00;;;;;;;23.58;16.02;;;;;;;10.74;64.14;99947.00;4881742;28;96682;-83
2022/04/21 10:26:38;;;;;;;30.30;16.95;;;;;;;10.80;64.26;99954.63;4867421;28;97589;-87
2022/04/21 10:29:17;;;;;;;28.98;18.02;;;;;;;10.76;63.90;99937.31;4902269;28;101409;-85
2022/04/21 10:31:49;;;;;;;28.92;16.73;;;;;;;10.88;64.12;99959.56;4911821;28;98115;-85
2022/04/21 10:34:37;;;;;;;31.45;17.73;;;;;;;10.95;63.78;99950.50;4880641;28;96825;-85
2022/04/21 10:37:19;;;;;;;26.75;16.35;;;;;;;10.91;63.52;99943.69;4862277;28;97147;-86
2022/04/21 10:40:02;;;;;;;24.92;16.13;;;;;;;11.10;63.44;99957.75;4893445;28;98573;-86
2022/04/21 10:42:27;;;;;;;28.38;18.17;;;;;;;11.27;63.70;99948.31;4892100;28;101128;-86
2022/04/21 10:44:54;;;;;;;28.55;17.88;;;;;;;11.25;63.71;99929.13;4865099;28;96776;-86
2022/04/21 10:47:36;;;;;;;30.77;18.67;;;;;;;11.30;63.24;99927.16;4873405;28;97226;-85
2022/04/21 10:50:18;;;;;;;27.70;17.27;;;;;;;11.33;62.88;99927.88;4874499;28;102071;-87
2022/04/21 10:58:36;;;;;;;28.85;15.82;;;;;;;11.47;61.89;99945.66;4883461;28;96761;-86
2022/04/21 11:01:17;;;;;;;30.55;16.88;;;;;;;11.53;61.89;99941.91;4876340;28;102022;-86
2022/04/21 11:03:45;;;;;;;25.05;15.60;;;;;;;11.44;61.41;99919.53;4878707;28;101423;-88
2022/04/21 11:06:14;;;;;;;27.20;15.45;;;;;;;11.65;61.65;99933.50;4874906;28;96853;-86
2022/04/21 11:08:41;;;;;;;25.98;16.17;;;;;;;11.69;60.96;99935.06;4861547;28;97423;-87
2022/04/21 11:11:07;;;;;;;22.15;14.95;;;;;;;11.69;61.23;99903.53;4863687;28;101379;-86
2022/04/21 11:13:43;;;;;;;24.13;14.45;;;;;;;11.91;59.86;99931.50;4883972;28;97609;-85
2022/04/21 11:16:09;;;;;;;25.80;16.17;;;;;;;11.76;59.38;99906.72;4872188;28;96833;-87
2022/04/21 11:18:35;;;;;;;24.35;15.40;;;;;;;11.87;59.33;99922.91;4865269;28;96865;-86
2022/04/21 11:21:29;;;;;;;23.98;14.00;;;;;;;11.94;59.05;99931.34;4878428;28;97702;-86
2022/04/21 11:23:54;;;;;;;23.92;14.13;;;;;;;11.79;59.06;99906.56;4896700;28;97406;-85
2022/04/21 11:26:28;;;;;;;21.25;14.38;;;;;;;11.96;59.62;99932.16;4893901;28;97379;-86
2022/04/21 11:28:54;;;;;;;24.50;14.25;;;;;;;11.91;59.47;99907.81;4865525;28;97226;-85
2022/04/21 11:31:20;;;;;;;22.13;12.88;;;;;;;12.12;58.85;99933.13;4902606;28;101302;-83
2022/04/21 11:33:46;;;;;;;19.90;12.95;;;;;;;12.07;58.30;99919.34;4904944;28;98245;-86
2022/04/21 11:36:14;;;;;;;20.67;13.15;;;;;;;12.15;58.63;99916.34;4889865;28;96855;-86
2022/04/21 11:38:44;;;;;;;23.35;14.88;;;;;;;12.21;58.30;99919.53;4856806;28;96993;-87
2022/04/21 11:41:12;;;;;;;22.50;14.63;;;;;;;12.19;58.08;99924.03;4862162;28;101472;-83
2022/04/21 11:43:48;;;;;;;20.80;14.95;;;;;;;12.20;57.92;99925.72;4894954;28;99203;-86
2022/04/21 11:46:14;;;;;;;21.27;14.40;;;;;;;12.04;57.89;99887.91;4884344;28;96801;-86
2022/04/21 11:48:41;;;;;;;19.98;13.52;;;;;;;12.30;57.70;99925.28;4886758;28;97101;-85
2022/04/21 11:51:09;;;;;;;17.40;12.13;;;;;;;12.15;57.17;99877.72;4888551;28;98466;-87
2022/04/21 11:53:42;;;;;;;17.30;12.05;;;;;;;12.32;56.93;99908.50;4876518;28;101384;-86
2022/04/21 11:56:09;;;;;;;19.08;12.65;;;;;;;12.38;56.89;99913.47;4881918;28;97437;-86
2022/04/21 11:58:37;;;;;;;18.63;12.45;;;;;;;12.34;55.94;99885.63;4881096;28;97060;-85
2022/04/21 12:06:45;;;;;;;23.92;13.75;;;;;;;12.51;56.47;99912.88;4909138;28;97383;-86
2022/04/21 12:09:17;;;;;;;18.90;12.95;;;;;;;12.40;56.34;99893.22;4895664;28;96998;-85
2022/04/21 12:11:54;;;;;;;17.15;13.20;;;;;;;12.54;55.48;99908.34;4888913;28;100954;-85
2022/04/21 12:14:21;;;;;;;17.80;11.80;;;;;;;12.43;55.83;99879.91;4882511;28;101343;-85
2022/04/21 12:17:06;;;;;;;18.25;12.82;;;;;;;12.45;56.22;99888.59;4866922;28;98370;-85
2022/04/21 12:19:32;;;;;;;21.92;15.48;;;;;;;12.60;55.95;99902.78;4866797;28;97018;-85
2022/04/21 12:22:01;;;;;;;20.75;14.95;;;;;;;12.65;55.56;99899.91;4861713;28;98992;-86